Pensacola Regional Airport
KPNS : now visible

Airfield :











YOU CAN JOIN US ON...

 
LOGIN :

Register | Disclaimer

   EN    FR    IT 

 









Legend :    VFR   Marginal VFR   IFR   Intensive IFR   Very Intensive IFR
Visi :
Ceiling :
>= 8 km
>= 3000ft
5 to 8 km
1000 to 3000 ft
1500m to 5 km
500 to 1000 ft
800 to 1500m
200 to 500 ft
< 800m
< 200 ft
Symbols :   Thunderstorms  Fog  Heavy snow  Heavy precipitations  Wind > 20 kt






- Airport Elevation : 121 ft
- IATA code : PNS


KPNS - Pensacola Regional

CURRENT METAR :
  • 271614Z 30007KT 10SM BKN030 BKN040 29/23 A2993 RMK AO2 T02940228

EXPIRED METARs :
  • 271553Z 28007KT 10SM BKN025 BKN031 29/23 A2993 RMK AO2 SLP134 T02940233
  • 271534Z 33006KT 10SM BKN023 29/24 A2993 RMK AO2 T02940239
  • 271453Z 28007KT 10SM SCT023 SCT110 29/23 A2993 RMK AO2 SLP136 T02890233 50006
  • 271427Z 29005KT 10SM FEW014 SCT024 SCT110 28/24 A2993 RMK AO2 T02830239
  • 271408Z 30007KT 10SM SCT014 OVC024 28/25 A2994 RMK AO2 T02780250
  • 271353Z 28006KT 10SM BKN014 BKN023 BKN047 28/26 A2993 RMK AO2 SLP137 T02780256

TAF KPNS
Valid from the 27 at 15:00 until the 28 at 12:00 UTC


271520Z 2715/2812 28007KT P6SM VCSH SCT025
FM271800 20007KT P6SM VCSH SCT020 BKN030
FM272100 17008KT P6SM VCSH SCT020 BKN030
FM280400 17003KT P6SM SCT010
KZJX FIR / North America



MET'MAP, your aeronautical weather chart ! - Copyright ORBIFLY December 2007 - Disclaimer

ORBIFLY MET'MAP TEAM :

Programming & Development : Alexandra Zaïnal
Concept & original design : Baudouin d'Aumeries
Assistance for programming : Marc-Olivier Méhu
Technical & hardware support : Manuel Goepfert

Contact : metmap@orbifly.com




SOURCES & CREDITS :

   NOAA       Earth
Advisory